Time;durP1;ratioP1;P1;durP2;ratioP2;P2;SDS_P1;SDS_P2;PMS_P1;PMS_P2;Temp;Humidity;BMP_temperature;BMP_pressure;BME280_temperature;BME280_humidity;BME280_pressure;Samples;Min_cycle;Max_cycle;Signal;HPM_P1;HPM_P2
2021/07/14 05:16:44;;;;;;;17.92;12.15;;;;;;;21.64;79.53;97960.56;1871572;76;22714;-60
2021/07/14 05:19:15;;;;;;;17.92;10.98;;;;;;;21.68;79.40;97962.77;1828139;78;20911;-63
2021/07/14 05:21:42;;;;;;;17.02;10.25;;;;;;;21.83;79.22;97967.89;1827986;78;21044;-63
2021/07/14 07:39:06;;;;;;;9.93;6.80;;;;;;;26.86;60.22;97957.10;1890676;76;23288;-60
2021/07/14 07:41:33;;;;;;;13.18;6.47;;;;;;;26.89;60.43;97964.56;1820950;77;20881;-66
2021/07/14 07:44:01;;;;;;;8.28;6.58;;;;;;;26.98;60.10;97960.00;1816522;79;21119;-62
2021/07/14 07:46:28;;;;;;;8.20;6.53;;;;;;;27.11;60.00;97956.41;1822918;77;20945;-63
2021/07/14 07:48:55;;;;;;;11.57;6.60;;;;;;;27.26;59.37;97957.71;1816486;77;20900;-63
2021/07/14 07:51:22;;;;;;;9.68;6.45;;;;;;;27.35;58.14;97955.30;1820217;77;21415;-60
2021/07/14 07:53:49;;;;;;;7.65;5.80;;;;;;;27.44;57.39;97952.95;1847406;77;20955;-65
2021/07/14 07:56:15;;;;;;;8.20;6.15;;;;;;;27.53;57.01;97956.03;1821555;78;21109;-65
2021/07/14 07:58:44;;;;;;;12.63;6.65;;;;;;;27.62;56.21;97954.41;1816489;79;20868;-65
2021/07/14 08:01:11;;;;;;;10.68;6.60;;;;;;;27.71;57.16;97949.81;1814566;77;21491;-63
2021/07/14 08:03:43;;;;;;;8.50;6.00;;;;;;;27.80;56.98;97948.17;1826827;77;20921;-68
2021/07/14 08:06:11;;;;;;;7.50;6.47;;;;;;;27.90;57.24;97945.16;1836591;78;20849;-63
2021/07/14 08:08:39;;;;;;;14.55;6.10;;;;;;;28.01;57.06;97945.09;1836137;78;21095;-66
2021/07/14 08:11:08;;;;;;;16.57;5.97;;;;;;;28.09;56.42;97946.02;1833307;78;20979;-61
2021/07/14 08:13:38;;;;;;;9.20;5.97;;;;;;;28.12;53.93;97945.18;1777828;80;21018;-68
2021/07/14 08:16:07;;;;;;;14.25;5.62;;;;;;;28.14;53.63;97942.83;1776198;80;20869;-60
2021/07/14 08:18:36;;;;;;;16.35;5.78;;;;;;;28.18;52.43;97949.08;1785379;79;20916;-66
2021/07/14 08:21:04;;;;;;;7.25;5.45;;;;;;;28.22;52.26;97945.69;1759272;80;20931;-67
2021/07/14 08:23:33;;;;;;;10.05;5.35;;;;;;;28.30;52.48;97947.79;1754978;80;20884;-62
2021/07/14 08:26:00;;;;;;;9.15;5.50;;;;;;;28.38;52.95;97952.81;1818232;77;20885;-65
2021/07/14 08:28:27;;;;;;;6.12;5.03;;;;;;;28.45;52.54;97940.34;1817426;77;21013;-65
2021/07/14 08:30:55;;;;;;;8.28;5.55;;;;;;;28.56;51.91;97942.22;1816551;79;21487;-64
2021/07/14 08:33:22;;;;;;;8.38;5.45;;;;;;;28.63;52.20;97944.92;1823353;77;20993;-65
2021/07/14 08:35:49;;;;;;;10.78;5.58;;;;;;;28.67;51.61;97945.07;1827472;77;20912;-68
2021/07/14 08:38:16;;;;;;;10.40;5.10;;;;;;;28.74;52.75;97944.20;1820815;77;20969;-64
2021/07/14 08:40:43;;;;;;;9.73;5.15;;;;;;;28.84;52.11;97941.93;1834485;77;21343;-64
2021/07/14 08:43:14;;;;;;;10.35;5.30;;;;;;;28.94;51.56;97945.95;1840326;77;20888;-64
2021/07/14 08:45:41;;;;;;;10.55;5.33;;;;;;;29.02;51.34;97946.62;1836775;77;21084;-63
2021/07/14 08:48:09;;;;;;;10.25;5.17;;;;;;;29.09;50.76;97947.92;1786114;77;20935;-63
2021/07/14 08:50:42;;;;;;;8.40;4.72;;;;;;;29.13;49.79;97950.05;1789322;79;21001;-63
2021/07/14 08:53:04;;;;;;;8.70;4.72;;;;;;;29.16;49.06;97950.58;1794401;78;21517;-65
2021/07/14 08:55:31;;;;;;;12.98;4.67;;;;;;;29.18;47.91;97944.11;1800412;78;21119;-66
2021/07/14 08:57:59;;;;;;;7.22;5.25;;;;;;;29.19;47.98;97945.66;1794292;78;21125;-64
2021/07/14 09:00:27;;;;;;;12.15;5.17;;;;;;;29.24;49.30;97949.34;1780586;79;20965;-63
2021/07/14 09:02:54;;;;;;;12.07;5.70;;;;;;;29.31;49.69;97942.94;1786367;78;21137;-64
2021/07/14 09:05:21;;;;;;;8.30;4.70;;;;;;;29.38;49.77;97935.36;1800726;78;20894;-62
2021/07/14 09:07:48;;;;;;;6.30;5.15;;;;;;;29.45;49.50;97933.88;1796676;78;21077;-60
2021/07/14 09:10:17;;;;;;;6.65;5.00;;;;;;;29.54;48.74;97932.75;1807327;78;21168;-62
2021/07/14 09:12:46;;;;;;;7.95;4.90;;;;;;;29.61;47.24;97929.10;1801641;78;20951;-67
2021/07/14 09:15:17;;;;;;;7.40;5.10;;;;;;;29.63;48.13;97938.53;1791381;78;20954;-61
2021/07/14 09:17:49;;;;;;;7.65;4.85;;;;;;;29.68;48.35;97938.66;1803792;79;20910;-62
2021/07/14 09:20:28;;;;;;;10.78;5.15;;;;;;;29.73;47.69;97941.73;1810830;79;21421;-62
2021/07/14 09:23:11;;;;;;;9.28;5.05;;;;;;;29.78;47.97;97933.02;1785367;78;21144;-66
2021/07/14 09:25:47;;;;;;;9.83;5.10;;;;;;;29.84;48.33;97934.71;1802647;79;20882;-65
2021/07/14 09:28:16;;;;;;;10.43;5.20;;;;;;;29.92;47.80;97933.98;1796872;78;21550;-61
2021/07/14 09:30:50;;;;;;;11.55;5.30;;;;;;;29.97;47.55;97932.91;1803380;79;20974;-60
2021/07/14 09:33:17;;;;;;;10.95;4.67;;;;;;;29.99;47.80;97937.41;1783302;77;21018;-63
2021/07/14 09:35:49;;;;;;;13.80;4.72;;;;;;;30.05;48.02;97933.58;1810839;79;21733;-63
2021/07/14 09:38:35;;;;;;;11.38;5.03;;;;;;;30.13;47.73;97923.36;1802929;78;21072;-65
2021/07/14 09:41:08;;;;;;;13.08;5.00;;;;;;;30.18;47.30;97926.23;1797153;78;20904;-65
2021/07/14 09:43:43;;;;;;;9.78;5.05;;;;;;;30.23;47.48;97929.31;1786981;79;21487;-62
2021/07/14 09:46:11;;;;;;;12.37;5.05;;;;;;;30.31;46.23;97931.35;1797954;77;20896;-65
2021/07/14 09:48:44;;;;;;;10.13;4.97;;;;;;;30.33;46.29;97935.28;1778119;77;22132;-64
2021/07/14 09:51:16;;;;;;;9.58;4.75;;;;;;;30.38;45.25;97938.16;1800183;77;20967;-62
2021/07/14 09:53:53;;;;;;;9.23;4.70;;;;;;;30.40;44.60;97938.52;1799522;79;21016;-62
2021/07/14 09:56:32;;;;;;;11.90;4.87;;;;;;;30.43;45.10;97937.05;1785066;78;20892;-62
2021/07/14 09:59:11;;;;;;;8.03;4.97;;;;;;;30.49;45.44;97942.88;1816122;77;20895;-65
2021/07/14 10:01:48;;;;;;;5.92;4.28;;;;;;;30.56;44.60;97939.98;1812023;78;20820;-61
2021/07/14 10:04:30;;;;;;;8.23;4.33;;;;;;;30.61;43.88;97934.57;1812003;77;20972;-61
2021/07/14 10:07:15;;;;;;;16.57;5.13;;;;;;;30.61;43.46;97940.09;1808760;78;21475;-65
2021/07/14 10:09:45;;;;;;;10.75;4.67;;;;;;;30.61;43.46;97940.09;1811227;77;21695;-62
2021/07/14 10:12:36;;;;;;;13.18;4.12;;;;;;;30.67;44.21;97930.09;1825970;77;21001;-61
2021/07/14 10:15:19;;;;;;;10.18;4.50;;;;;;;30.76;43.96;97940.02;1831689;77;21654;-62
2021/07/14 10:17:51;;;;;;;8.88;4.83;;;;;;;30.82;43.86;97937.70;1825414;77;20999;-61
2021/07/14 10:20:34;;;;;;;7.70;4.40;;;;;;;30.89;43.44;97944.51;1812019;77;21465;-61
2021/07/14 10:23:08;;;;;;;7.42;4.42;;;;;;;30.94;43.03;97938.48;1794906;77;21060;-63
2021/07/14 10:25:39;;;;;;;8.20;4.12;;;;;;;30.97;41.68;97941.00;1802033;79;21414;-65
2021/07/14 10:28:07;;;;;;;10.70;4.87;;;;;;;30.98;42.41;97944.72;1807156;77;21745;-61
2021/07/14 10:30:38;;;;;;;8.93;4.58;;;;;;;31.01;42.35;97945.25;1828155;77;21537;-62
2021/07/14 10:33:05;;;;;;;5.58;3.95;;;;;;;31.06;42.79;97937.84;1825424;77;20939;-61
2021/07/14 10:35:42;;;;;;;12.70;4.65;;;;;;;31.13;42.94;97941.06;1798140;77;20935;-63
2021/07/14 10:38:21;;;;;;;9.00;4.42;;;;;;;31.20;42.59;97945.66;1816310;77;21686;-63
2021/07/14 10:40:51;;;;;;;8.55;4.55;;;;;;;31.29;42.99;97951.39;1817703;77;21525;-62
2021/07/14 10:43:25;;;;;;;12.37;4.75;;;;;;;31.35;42.27;97948.30;1824109;77;20931;-62
2021/07/14 10:45:53;;;;;;;;;;;;;;;31.39;41.66;97955.92;1828339;77;20832;-58
2021/07/14 10:48:23;;;;;;;7.05;3.83;;;;;;;31.40;41.05;97953.31;1825320;77;20177;-61
2021/07/14 10:50:57;;;;;;;5.83;4.22;;;;;;;31.34;40.92;97950.29;1793126;77;20979;-64
2021/07/14 10:53:31;;;;;;;7.80;4.50;;;;;;;31.33;41.89;97950.70;1809495;77;20922;-60
2021/07/14 10:55:59;;;;;;;8.03;4.30;;;;;;;31.38;42.22;97955.12;1805970;79;20920;-62
2021/07/14 10:58:27;;;;;;;7.47;4.40;;;;;;;31.46;40.88;97958.56;1789326;78;20939;-62
2021/07/14 11:00:54;;;;;;;8.05;4.50;;;;;;;31.49;40.59;97950.79;1771082;78;20851;-61
2021/07/14 11:03:44;;;;;;;10.35;3.90;;;;;;;31.48;40.78;97950.00;1815303;77;21038;-60
2021/07/14 11:06:13;;;;;;;8.83;4.37;;;;;;;31.52;41.50;97954.84;1803193;77;21364;-63
2021/07/14 11:08:50;;;;;;;8.60;4.25;;;;;;;31.55;41.41;97953.21;1790717;77;21434;-60
2021/07/14 11:11:21;;;;;;;10.43;5.05;;;;;;;31.55;42.04;97947.67;1796312;77;20953;-61
2021/07/14 11:14:07;;;;;;;9.83;4.40;;;;;;;31.58;42.93;97955.91;1764158;80;21498;-65
2021/07/14 11:16:39;;;;;;;6.92;4.20;;;;;;;31.65;41.75;97949.43;1789919;79;20884;-59
2021/07/14 11:19:14;;;;;;;8.08;4.37;;;;;;;31.68;41.84;97959.63;1789754;78;21687;-61
2021/07/14 11:22:03;;;;;;;9.60;4.65;;;;;;;31.73;41.84;97953.58;1805913;77;21081;-68
2021/07/14 11:24:52;;;;;;;10.45;4.53;;;;;;;31.81;40.92;97952.21;1812850;77;21054;-63
2021/07/14 11:27:30;;;;;;;8.08;4.58;;;;;;;31.84;41.01;97956.89;1835807;77;20955;-61
2021/07/14 11:30:07;;;;;;;7.30;3.80;;;;;;;31.89;41.32;97955.00;1813287;77;21569;-60
2021/07/14 11:32:40;;;;;;;9.25;4.17;;;;;;;31.95;39.61;97962.95;1767911;78;21778;-65
2021/07/14 11:35:15;;;;;;;7.25;4.22;;;;;;;31.98;39.68;97959.36;1767454;80;21423;-61
2021/07/14 11:37:47;;;;;;;7.08;3.75;;;;;;;32.02;40.01;97957.87;1779466;79;20928;-63
2021/07/14 11:40:23;;;;;;;5.37;3.62;;;;;;;32.07;40.08;97959.52;1783221;78;20963;-62
2021/07/14 11:42:59;;;;;;;9.10;3.98;;;;;;;32.17;40.40;97958.48;1815197;77;20931;-63
2021/07/14 11:45:53;;;;;;;7.47;4.35;;;;;;;32.34;40.21;97953.08;1827611;77;21702;-62
2021/07/14 11:48:29;;;;;;;7.83;4.05;;;;;;;32.52;39.35;97953.27;1827960;77;20824;-66
2021/07/14 11:51:05;;;;;;;10.38;4.20;;;;;;;32.62;38.84;97948.05;1819515;77;20959;-63
2021/07/14 13:51:47;;;;;;;6.65;3.55;;;;;;;35.01;33.39;97894.53;1869969;76;22141;-62
2021/07/14 13:54:28;;;;;;;6.15;3.50;;;;;;;34.88;33.41;97895.20;1826131;78;21505;-65
2021/07/14 13:57:03;;;;;;;7.33;3.67;;;;;;;34.89;34.11;97887.64;1789837;80;21112;-61
